Time;durP1;ratioP1;P1;durP2;ratioP2;P2;SDS_P1;SDS_P2;PMS_P1;PMS_P2;Temp;Humidity;BMP_temperature;BMP_pressure;BME280_temperature;BME280_humidity;BME280_pressure;Samples;Min_cycle;Max_cycle;Signal;HPM_P1;HPM_P2
2021/05/24 00:01:48;;;;;;;5.18;2.30;;;12.30;72.70;;;;;;5071918;28;20488;-55
2021/05/24 00:04:13;;;;;;;5.43;2.40;;;12.30;72.50;;;;;;5057390;28;20052;-55
2021/05/24 00:06:39;;;;;;;5.53;2.28;;;12.30;73.10;;;;;;5030961;28;20076;-58
2021/05/24 00:09:06;;;;;;;6.50;2.25;;;12.30;73.10;;;;;;5075279;28;20036;-52
2021/05/24 00:11:32;;;;;;;6.32;2.30;;;12.30;73.80;;;;;;5063844;28;20036;-52
2021/05/24 00:13:58;;;;;;;4.57;2.35;;;12.20;74.00;;;;;;5078347;28;20445;-56
2021/05/24 00:16:25;;;;;;;7.53;2.25;;;12.30;74.30;;;;;;5054376;28;20147;-55
2021/05/24 00:18:51;;;;;;;6.20;2.20;;;12.30;74.70;;;;;;5077355;28;20119;-55
2021/05/24 00:21:21;;;;;;;4.15;2.10;;;12.20;75.10;;;;;;5073301;28;20041;-55
2021/05/24 00:23:47;;;;;;;6.15;2.50;;;12.20;75.60;;;;;;5072115;28;20035;-52
2021/05/24 00:26:14;;;;;;;5.60;2.42;;;12.10;75.90;;;;;;5071161;28;20036;-54
2021/05/24 00:28:41;;;;;;;5.60;2.20;;;12.10;77.50;;;;;;5074583;28;20047;-58
2021/05/24 00:31:07;;;;;;;9.25;2.53;;;12.10;77.80;;;;;;5073455;28;20037;-57
2021/05/24 00:33:33;;;;;;;4.53;2.72;;;12.00;78.10;;;;;;5066726;28;20400;-56
2021/05/24 00:35:59;;;;;;;7.55;2.55;;;12.00;78.40;;;;;;5074484;28;20039;-59
2021/05/24 00:38:25;;;;;;;5.53;2.60;;;12.00;78.90;;;;;;5059318;28;20032;-59
2021/05/24 00:40:51;;;;;;;7.85;3.10;;;11.90;79.30;;;;;;5064604;28;20044;-59
2021/05/24 00:43:17;;;;;;;6.68;3.03;;;11.90;79.20;;;;;;5054113;28;20587;-59
2021/05/24 00:45:42;;;;;;;6.00;2.90;;;11.80;79.40;;;;;;5071559;28;20480;-59
2021/05/24 00:48:10;;;;;;;8.63;3.25;;;11.80;79.40;;;;;;5071498;28;20045;-57
2021/05/24 00:50:39;;;;;;;7.30;2.67;;;11.70;79.70;;;;;;5053092;28;20040;-56
2021/05/24 00:53:05;;;;;;;8.15;3.00;;;11.70;79.50;;;;;;5068978;28;20037;-59
2021/05/24 00:55:31;;;;;;;6.72;3.13;;;11.70;79.60;;;;;;5068854;28;20097;-58
2021/05/24 00:57:56;;;;;;;8.43;3.38;;;11.70;79.90;;;;;;5071339;28;20037;-58
2021/05/24 01:00:36;;;;;;;9.25;3.38;;;11.60;80.20;;;;;;5073750;28;20047;-53
2021/05/24 01:03:04;;;;;;;6.55;3.28;;;11.70;80.10;;;;;;5070747;28;20451;-54
2021/05/24 01:05:30;;;;;;;6.18;2.80;;;11.60;80.40;;;;;;5070265;28;20435;-55
2021/05/24 01:07:56;;;;;;;9.23;3.20;;;11.60;80.60;;;;;;5060546;28;20037;-59
2021/05/24 01:10:22;;;;;;;7.43;3.10;;;11.60;80.20;;;;;;5072046;28;20119;-59
2021/05/24 01:12:48;;;;;;;8.48;3.25;;;11.60;80.20;;;;;;5053207;28;20484;-59
2021/05/24 01:15:14;;;;;;;7.20;3.53;;;11.60;79.80;;;;;;5061960;28;20040;-57
2021/05/24 01:17:40;;;;;;;7.15;2.70;;;11.60;80.00;;;;;;5070762;28;20048;-58
2021/05/24 01:20:06;;;;;;;7.32;3.00;;;11.60;79.70;;;;;;5053823;28;20028;-59
2021/05/24 01:22:34;;;;;;;7.78;2.97;;;11.70;79.10;;;;;;5068061;28;20093;-59
2021/05/24 01:25:00;;;;;;;7.35;3.03;;;11.60;79.50;;;;;;5074254;28;20264;-59
2021/05/24 01:27:26;;;;;;;7.18;3.38;;;11.60;79.50;;;;;;5061348;28;20033;-59
2021/05/24 01:29:52;;;;;;;8.30;3.20;;;11.60;79.50;;;;;;5048950;28;20048;-58
2021/05/24 01:32:18;;;;;;;9.48;3.17;;;11.70;79.60;;;;;;5069789;28;20047;-59
2021/05/24 01:34:44;;;;;;;7.10;3.00;;;11.70;79.80;;;;;;5031901;28;20093;-59
2021/05/24 01:37:10;;;;;;;6.15;2.90;;;11.70;79.70;;;;;;5064296;28;20041;-59
2021/05/24 01:39:36;;;;;;;6.65;2.92;;;11.60;80.10;;;;;;5070480;28;20036;-57
2021/05/24 01:42:02;;;;;;;6.97;3.05;;;11.60;80.60;;;;;;5052709;28;20037;-55
2021/05/24 01:44:40;;;;;;;7.18;3.03;;;11.60;80.40;;;;;;5069870;28;20067;-58
2021/05/24 01:47:06;;;;;;;8.30;3.20;;;11.60;80.90;;;;;;5066570;28;20028;-57
2021/05/24 01:49:34;;;;;;;7.20;2.90;;;11.60;80.90;;;;;;5065771;28;20040;-55
2021/05/24 01:52:01;;;;;;;6.72;3.53;;;11.60;81.50;;;;;;5069072;28;20037;-56
2021/05/24 01:54:26;;;;;;;6.45;2.53;;;11.60;82.10;;;;;;5062816;28;20044;-55
2021/05/24 01:56:52;;;;;;;7.47;3.15;;;11.60;82.50;;;;;;5062705;28;20037;-55
2021/05/24 01:59:18;;;;;;;6.88;2.83;;;11.60;83.70;;;;;;5069663;28;20135;-56
2021/05/24 02:01:44;;;;;;;8.65;3.80;;;11.50;83.50;;;;;;5068625;28;20068;-58
2021/05/24 02:04:11;;;;;;;6.95;3.30;;;11.40;84.10;;;;;;5068866;28;20060;-57
2021/05/24 02:06:36;;;;;;;10.02;3.67;;;11.30;84.50;;;;;;5052292;28;20051;-57
2021/05/24 02:09:03;;;;;;;9.70;4.05;;;11.40;85.50;;;;;;5051589;28;20432;-57
2021/05/24 02:11:29;;;;;;;6.97;3.90;;;11.30;85.80;;;;;;5070145;28;20040;-54
2021/05/24 02:13:56;;;;;;;9.93;4.20;;;11.20;85.90;;;;;;5071004;28;20056;-57
2021/05/24 02:16:43;;;;;;;8.48;3.80;;;11.20;87.10;;;;;;5070439;28;20127;-55
2021/05/24 02:19:10;;;;;;;8.63;3.70;;;11.10;87.40;;;;;;5077635;28;20096;-57
2021/05/24 02:21:37;;;;;;;8.15;4.28;;;11.10;87.50;;;;;;5052630;28;20505;-56
2021/05/24 02:24:04;;;;;;;9.73;4.30;;;11.10;89.30;;;;;;5074076;28;20036;-57
2021/05/24 02:26:30;;;;;;;9.00;3.72;;;11.20;88.50;;;;;;5069174;28;20098;-57
2021/05/24 02:28:56;;;;;;;6.68;3.25;;;11.10;88.40;;;;;;5075211;28;20497;-57
2021/05/24 02:31:21;;;;;;;6.18;3.05;;;11.10;88.30;;;;;;5052059;28;20045;-57
2021/05/24 02:33:48;;;;;;;6.43;3.03;;;11.00;88.20;;;;;;5076203;28;20408;-57
2021/05/24 02:36:14;;;;;;;7.57;3.30;;;11.10;88.20;;;;;;5068108;28;20043;-57
2021/05/24 02:38:40;;;;;;;8.18;3.65;;;11.10;88.10;;;;;;5069258;28;20140;-56
2021/05/24 02:41:06;;;;;;;5.50;3.20;;;11.10;86.50;;;;;;5070361;28;20077;-57
2021/05/24 02:43:32;;;;;;;6.40;2.60;;;11.10;85.90;;;;;;5069595;28;20111;-56
2021/05/24 02:45:58;;;;;;;7.47;2.90;;;11.30;84.00;;;;;;5071136;28;20036;-57
2021/05/24 02:48:24;;;;;;;7.47;2.42;;;11.30;83.30;;;;;;5083746;28;20040;-58
2021/05/24 02:50:50;;;;;;;6.10;2.28;;;11.40;81.70;;;;;;5087277;28;20060;-57
2021/05/24 02:53:16;;;;;;;8.25;2.42;;;11.60;79.50;;;;;;5073585;28;20079;-56
2021/05/24 02:55:42;;;;;;;4.32;1.95;;;11.70;79.30;;;;;;5055727;28;20416;-57
2021/05/24 02:58:08;;;;;;;5.72;2.08;;;11.80;78.60;;;;;;5074733;28;20079;-57
2021/05/24 03:00:36;;;;;;;5.65;2.25;;;11.70;78.40;;;;;;5073412;28;20063;-58
2021/05/24 03:03:03;;;;;;;4.97;1.80;;;11.80;78.40;;;;;;5055875;28;20101;-57
2021/05/24 03:05:28;;;;;;;7.97;2.10;;;11.80;77.80;;;;;;5018292;28;20485;-58
2021/05/24 03:07:54;;;;;;;5.15;2.00;;;11.80;77.60;;;;;;5066145;28;20053;-57
2021/05/24 03:10:23;;;;;;;4.65;1.85;;;12.00;76.60;;;;;;5074325;28;20049;-57
2021/05/24 03:12:50;;;;;;;6.03;1.80;;;12.00;76.00;;;;;;5073228;28;20037;-58
2021/05/24 03:15:17;;;;;;;6.05;2.00;;;12.10;74.70;;;;;;5074850;28;20035;-57
2021/05/24 03:17:43;;;;;;;5.30;1.98;;;12.20;74.30;;;;;;5073294;28;20048;-56
2021/05/24 03:20:11;;;;;;;4.15;1.95;;;12.20;74.80;;;;;;5074616;28;20048;-56
2021/05/24 03:22:37;;;;;;;4.20;1.88;;;12.20;74.80;;;;;;5076148;28;20485;-56
2021/05/24 03:25:04;;;;;;;7.20;1.83;;;12.20;75.30;;;;;;5072295;28;20416;-56
2021/05/24 03:27:30;;;;;;;4.63;1.50;;;12.20;75.50;;;;;;5074504;28;20040;-56
2021/05/24 03:29:56;;;;;;;5.57;1.80;;;12.20;74.90;;;;;;5073206;28;20401;-56
2021/05/24 03:32:21;;;;;;;3.78;1.80;;;12.20;75.40;;;;;;5076059;28;20051;-56
2021/05/24 03:34:47;;;;;;;4.05;1.58;;;12.10;75.30;;;;;;5072438;28;20094;-55
2021/05/24 03:37:13;;;;;;;5.28;1.88;;;12.10;75.50;;;;;;5068054;28;20056;-57
2021/05/24 03:39:38;;;;;;;5.40;1.80;;;12.20;74.50;;;;;;5067224;28;20037;-56
2021/05/24 03:42:04;;;;;;;5.28;1.50;;;12.20;74.60;;;;;;5071574;28;20039;-57
2021/05/24 03:44:30;;;;;;;5.95;1.60;;;12.20;74.70;;;;;;5068145;28;20044;-56
2021/05/24 03:46:56;;;;;;;3.95;1.40;;;12.30;74.10;;;;;;5066885;28;20041;-57
2021/05/24 03:49:21;;;;;;;5.53;2.03;;;12.30;74.20;;;;;;5068118;28;20059;-55
2021/05/24 03:51:47;;;;;;;6.82;1.60;;;12.40;74.20;;;;;;5076239;28;20056;-58
2021/05/24 03:54:13;;;;;;;3.47;1.45;;;12.40;74.10;;;;;;5072014;28;20041;-58
2021/05/24 03:56:38;;;;;;;2.63;1.50;;;12.40;74.20;;;;;;5077757;28;20070;-57
2021/05/24 03:59:04;;;;;;;3.03;1.52;;;12.40;74.00;;;;;;5068967;28;20478;-56
2021/05/24 04:01:30;;;;;;;4.72;1.25;;;12.40;74.10;;;;;;5078951;28;20044;-57
2021/05/24 04:03:57;;;;;;;4.70;1.50;;;12.40;74.00;;;;;;5072170;28;20090;-56
2021/05/24 04:06:25;;;;;;;5.47;1.75;;;12.50;73.70;;;;;;5079986;28;20044;-58
2021/05/24 04:08:51;;;;;;;5.32;1.58;;;12.40;74.00;;;;;;5072555;28;20045;-58
2021/05/24 04:11:17;;;;;;;5.28;1.83;;;12.40;74.20;;;;;;5079762;28;20043;-58
2021/05/24 04:13:49;;;;;;;3.67;1.58;;;12.50;74.10;;;;;;5071739;28;20074;-58
2021/05/24 04:16:15;;;;;;;3.17;1.55;;;12.50;73.70;;;;;;5072974;28;20045;-58
2021/05/24 04:18:45;;;;;;;2.97;1.25;;;12.40;74.30;;;;;;5071471;28;20044;-56
2021/05/24 04:21:11;;;;;;;4.38;1.70;;;12.50;74.10;;;;;;5080587;28;20048;-57
2021/05/24 04:23:37;;;;;;;4.63;1.50;;;12.40;74.40;;;;;;5074563;28;20064;-58
2021/05/24 04:26:03;;;;;;;3.40;1.40;;;12.40;74.20;;;;;;5068663;28;20075;-58
2021/05/24 04:28:28;;;;;;;3.55;1.40;;;12.50;74.30;;;;;;5067745;28;20481;-58
2021/05/24 04:30:56;;;;;;;4.55;1.30;;;12.50;74.70;;;;;;5072119;28;20476;-58
2021/05/24 04:33:25;;;;;;;3.88;1.80;;;12.50;74.90;;;;;;5053722;28;20075;-58
2021/05/24 04:35:51;;;;;;;3.45;1.50;;;12.40;75.40;;;;;;5054518;28;20056;-57
2021/05/24 04:38:17;;;;;;;4.50;1.77;;;12.40;75.00;;;;;;5068172;28;20049;-56
2021/05/24 04:40:42;;;;;;;4.50;1.50;;;12.50;75.60;;;;;;5074124;28;20048;-58
2021/05/24 04:43:08;;;;;;;4.78;1.63;;;12.50;75.10;;;;;;5075907;28;20477;-58
2021/05/24 04:45:34;;;;;;;5.22;1.75;;;12.50;74.80;;;;;;5071717;28;20480;-58
2021/05/24 04:47:59;;;;;;;5.22;1.40;;;12.40;75.20;;;;;;5078067;28;20385;-57
2021/05/24 04:50:25;;;;;;;2.92;1.45;;;12.50;75.00;;;;;;5072305;28;20057;-59
2021/05/24 04:52:51;;;;;;;9.35;1.90;;;12.50;75.40;;;;;;5073273;28;20040;-59
2021/05/24 04:55:19;;;;;;;2.65;1.45;;;12.50;75.50;;;;;;5069194;28;20047;-58
2021/05/24 04:57:44;;;;;;;3.50;1.50;;;12.50;75.20;;;;;;5063240;28;20040;-57
2021/05/24 05:00:11;;;;;;;4.28;1.50;;;12.50;75.00;;;;;;5070428;28;20054;-58
2021/05/24 05:02:37;;;;;;;4.47;1.50;;;12.50;75.20;;;;;;5079344;28;20093;-58
2021/05/24 05:05:05;;;;;;;4.10;1.58;;;12.50;75.30;;;;;;5072359;28;20071;-58
2021/05/24 05:07:31;;;;;;;4.63;1.83;;;12.50;75.60;;;;;;5061579;28;20571;-58
2021/05/24 05:09:58;;;;;;;6.95;1.60;;;12.50;75.60;;;;;;5055928;28;20555;-58
2021/05/24 05:12:27;;;;;;;3.53;1.38;;;12.50;75.50;;;;;;5069336;28;20033;-58
2021/05/24 05:14:53;;;;;;;4.57;1.70;;;12.40;76.10;;;;;;5071012;28;20055;-58
2021/05/24 05:17:19;;;;;;;4.82;1.75;;;12.50;75.80;;;;;;5074434;28;20420;-58
2021/05/24 05:19:45;;;;;;;5.10;1.40;;;12.50;75.40;;;;;;5069252;28;20045;-58
2021/05/24 05:22:10;;;;;;;4.43;1.67;;;12.50;76.00;;;;;;5058530;28;20040;-58
2021/05/24 05:24:36;;;;;;;3.40;1.40;;;12.50;76.20;;;;;;5069898;28;20054;-57
2021/05/24 05:27:02;;;;;;;4.00;1.65;;;12.50;75.90;;;;;;5074536;28;20061;-56
2021/05/24 05:29:48;;;;;;;3.20;1.70;;;12.60;75.10;;;;;;5047835;28;20528;-57
2021/05/24 05:32:14;;;;;;;6.95;1.90;;;12.60;75.70;;;;;;5071426;28;20061;-57
2021/05/24 05:34:39;;;;;;;3.50;1.60;;;12.60;75.40;;;;;;5070137;28;20115;-58
2021/05/24 05:37:05;;;;;;;7.32;1.80;;;12.70;75.40;;;;;;5061550;28;20462;-59
2021/05/24 05:39:32;;;;;;;4.60;1.55;;;12.70;74.90;;;;;;5057078;28;20044;-58
2021/05/24 05:41:57;;;;;;;6.55;1.63;;;12.80;74.60;;;;;;5055834;28;20028;-58
2021/05/24 05:44:23;;;;;;;4.30;1.70;;;12.70;75.20;;;;;;5064528;28;20041;-58
2021/05/24 05:46:49;;;;;;;9.13;1.73;;;12.70;75.60;;;;;;5056079;28;20489;-58
2021/05/24 05:49:14;;;;;;;6.18;1.58;;;12.70;76.00;;;;;;5070818;28;20043;-58
2021/05/24 05:51:40;;;;;;;8.45;1.73;;;12.70;75.90;;;;;;5072346;28;20401;-59
2021/05/24 05:54:06;;;;;;;3.25;1.50;;;12.70;76.00;;;;;;5070105;28;20390;-59
2021/05/24 05:56:32;;;;;;;3.97;1.70;;;12.80;75.80;;;;;;5067649;28;20041;-58
2021/05/24 05:58:57;;;;;;;6.55;1.83;;;12.80;76.20;;;;;;5064125;28;20040;-59
2021/05/24 06:01:23;;;;;;;4.80;1.65;;;12.80;76.10;;;;;;5078753;28;20446;-58
2021/05/24 06:03:49;;;;;;;4.25;1.48;;;12.80;75.70;;;;;;5069855;28;20501;-59
2021/05/24 06:06:15;;;;;;;4.63;1.52;;;12.90;75.60;;;;;;5075734;28;20094;-55
2021/05/24 06:08:40;;;;;;;5.63;1.70;;;12.90;75.70;;;;;;5057312;28;20048;-56
2021/05/24 06:11:07;;;;;;;4.25;1.80;;;12.90;75.90;;;;;;5070399;28;20047;-55
2021/05/24 06:13:33;;;;;;;5.05;1.90;;;13.00;76.50;;;;;;5072308;28;20107;-57
2021/05/24 06:15:59;;;;;;;4.38;1.75;;;13.10;74.80;;;;;;5070155;28;20083;-57
2021/05/24 06:18:24;;;;;;;5.97;1.50;;;13.10;74.90;;;;;;5074335;28;20067;-54
2021/05/24 06:20:50;;;;;;;4.00;1.45;;;13.10;75.90;;;;;;5072336;28;20118;-56
2021/05/24 06:23:16;;;;;;;6.22;1.50;;;13.20;74.80;;;;;;5071580;28;20130;-55
2021/05/24 06:25:42;;;;;;;3.88;1.63;;;13.30;74.50;;;;;;5077922;28;20044;-56
2021/05/24 06:28:09;;;;;;;4.00;1.50;;;13.30;75.00;;;;;;5085142;28;20036;-53
2021/05/24 06:30:36;;;;;;;4.57;1.70;;;13.30;75.10;;;;;;5076577;28;20089;-52
2021/05/24 06:33:02;;;;;;;5.63;1.30;;;13.30;75.70;;;;;;5085379;28;20047;-55
2021/05/24 06:35:28;;;;;;;7.82;1.60;;;13.40;75.10;;;;;;5070557;28;20106;-58
2021/05/24 06:37:53;;;;;;;3.22;1.25;;;13.40;75.10;;;;;;5074493;28;20040;-56
2021/05/24 06:40:19;;;;;;;5.82;1.40;;;13.40;75.30;;;;;;5074013;28;20036;-57
2021/05/24 06:42:45;;;;;;;4.45;1.27;;;13.50;74.40;;;;;;5056011;28;20150;-55
2021/05/24 06:45:12;;;;;;;4.85;1.33;;;13.60;73.50;;;;;;5065588;28;20040;-54
2021/05/24 06:47:38;;;;;;;15.30;1.70;;;13.60;73.70;;;;;;5069465;28;20033;-54
2021/05/24 06:50:05;;;;;;;3.78;1.00;;;13.60;74.30;;;;;;5072198;28;20465;-54
2021/05/24 06:52:32;;;;;;;3.53;1.10;;;13.70;74.50;;;;;;5073355;28;20115;-54
2021/05/24 06:54:58;;;;;;;4.25;1.30;;;13.70;74.50;;;;;;5073674;28;20040;-54
2021/05/24 06:57:24;;;;;;;5.45;1.20;;;13.80;74.20;;;;;;5072934;28;20038;-54
2021/05/24 06:59:49;;;;;;;2.78;1.20;;;13.90;73.80;;;;;;5065940;28;20045;-54
2021/05/24 07:02:16;;;;;;;4.32;1.30;;;13.90;73.70;;;;;;5056697;28;20185;-54
2021/05/24 07:04:44;;;;;;;2.55;1.10;;;14.00;74.10;;;;;;5073614;28;20493;-53
2021/05/24 07:07:10;;;;;;;4.05;1.23;;;14.00;73.90;;;;;;5068217;28;20463;-54
2021/05/24 07:09:36;;;;;;;3.42;1.25;;;14.10;73.80;;;;;;5079986;28;20033;-54
2021/05/24 07:12:02;;;;;;;3.60;1.30;;;14.10;73.60;;;;;;5072455;28;20437;-55
2021/05/24 07:14:28;;;;;;;3.05;1.23;;;14.20;73.10;;;;;;5070340;28;20041;-56
2021/05/24 07:16:55;;;;;;;4.20;1.30;;;14.30;71.60;;;;;;5071492;28;20547;-53
2021/05/24 07:19:20;;;;;;;5.63;1.35;;;14.40;69.90;;;;;;5072144;28;20515;-53
2021/05/24 07:21:46;;;;;;;3.17;1.13;;;14.40;70.50;;;;;;5075771;28;20036;-53
2021/05/24 07:24:12;;;;;;;4.55;1.33;;;14.40;70.70;;;;;;5050802;28;20037;-52
2021/05/24 07:26:38;;;;;;;3.97;1.30;;;14.40;70.40;;;;;;5070847;28;20047;-54
2021/05/24 07:29:04;;;;;;;2.78;1.02;;;14.50;69.60;;;;;;5075038;28;20441;-53
2021/05/24 07:31:30;;;;;;;3.90;1.45;;;14.50;69.60;;;;;;5069852;28;20032;-53
2021/05/24 07:33:56;;;;;;;6.03;1.27;;;14.40;70.00;;;;;;5053356;28;20032;-55
2021/05/24 07:36:21;;;;;;;6.55;1.20;;;14.50;68.60;;;;;;5061170;28;20041;-52
2021/05/24 07:38:47;;;;;;;3.33;1.05;;;14.50;69.00;;;;;;5058354;28;20036;-56
2021/05/24 07:41:13;;;;;;;3.53;1.10;;;14.50;68.80;;;;;;5069381;28;20566;-53
2021/05/24 07:43:38;;;;;;;4.03;1.20;;;14.40;69.30;;;;;;5066098;28;20139;-58
2021/05/24 07:46:04;;;;;;;3.65;1.02;;;14.40;69.60;;;;;;5073270;28;20092;-57
2021/05/24 07:48:30;;;;;;;3.53;1.15;;;14.50;69.30;;;;;;5066619;28;20044;-54
2021/05/24 07:51:00;;;;;;;2.63;1.17;;;14.50;68.80;;;;;;5074220;28;20051;-55
2021/05/24 07:53:26;;;;;;;4.43;1.30;;;14.50;68.50;;;;;;5050406;28;20118;-58
2021/05/24 07:55:52;;;;;;;2.53;1.00;;;14.50;69.60;;;;;;5083132;28;20518;-56
2021/05/24 07:58:17;;;;;;;4.72;1.30;;;14.40;70.80;;;;;;5073219;28;20029;-57
2021/05/24 08:00:43;;;;;;;3.35;1.00;;;14.40;71.50;;;;;;5067292;28;20374;-57
2021/05/24 08:03:09;;;;;;;3.65;1.20;;;14.40;71.10;;;;;;5056318;28;20048;-59
2021/05/24 08:05:35;;;;;;;3.42;1.15;;;14.30;71.90;;;;;;5058746;28;20100;-56
2021/05/24 08:08:01;;;;;;;4.43;1.05;;;14.30;72.10;;;;;;5075058;28;20056;-56
2021/05/24 08:10:27;;;;;;;5.30;1.52;;;14.30;71.80;;;;;;5074265;28;20040;-58
2021/05/24 08:12:53;;;;;;;8.38;1.92;;;14.10;75.00;;;;;;5050032;28;20028;-55
2021/05/24 08:15:31;;;;;;;4.35;1.60;;;13.80;78.20;;;;;;5065525;28;20043;-58
2021/05/24 08:17:59;;;;;;;5.03;1.70;;;13.40;79.80;;;;;;5071884;28;20033;-55
2021/05/24 08:20:25;;;;;;;5.10;1.80;;;13.20;81.60;;;;;;5071769;28;20037;-58
2021/05/24 08:22:51;;;;;;;4.18;1.80;;;13.10;82.70;;;;;;5071621;28;20094;-55
2021/05/24 08:25:16;;;;;;;8.35;1.90;;;13.00;83.60;;;;;;5069897;28;20044;-55
2021/05/24 08:27:42;;;;;;;3.25;1.70;;;12.90;84.90;;;;;;5071445;28;20720;-56
2021/05/24 08:30:09;;;;;;;6.85;2.00;;;12.90;84.90;;;;;;5071020;28;20063;-53
2021/05/24 08:32:35;;;;;;;4.63;1.95;;;12.90;85.90;;;;;;5071569;28;20064;-55
2021/05/24 08:35:02;;;;;;;5.72;1.75;;;12.80;85.80;;;;;;5067546;28;20055;-58
2021/05/24 08:37:27;;;;;;;3.95;1.60;;;12.80;86.40;;;;;;5072705;28;20389;-56
2021/05/24 08:39:53;;;;;;;3.35;1.70;;;12.80;86.50;;;;;;5071231;28;20043;-55
2021/05/24 08:42:19;;;;;;;2.95;1.60;;;12.70;86.20;;;;;;5070470;28;20029;-57
2021/05/24 08:44:47;;;;;;;4.00;1.60;;;12.70;86.50;;;;;;5069650;28;20128;-55
2021/05/24 08:47:13;;;;;;;3.33;1.70;;;12.60;86.40;;;;;;5070152;28;20123;-55
2021/05/24 08:49:39;;;;;;;4.03;1.70;;;12.60;86.10;;;;;;5070774;28;20115;-54
2021/05/24 08:52:05;;;;;;;3.80;1.58;;;12.50;86.40;;;;;;5071102;28;20115;-52
2021/05/24 08:54:31;;;;;;;3.75;1.55;;;12.50;87.10;;;;;;5069699;28;20071;-55
2021/05/24 08:56:57;;;;;;;2.38;1.50;;;12.40;87.10;;;;;;5068889;28;20119;-56
2021/05/24 08:59:22;;;;;;;4.22;1.70;;;12.40;86.70;;;;;;5067592;28;20113;-58
2021/05/24 09:01:48;;;;;;;2.92;1.77;;;12.30;87.30;;;;;;5067300;28;20040;-55
2021/05/24 09:04:14;;;;;;;2.05;1.52;;;12.30;88.00;;;;;;5070344;28;20044;-55
2021/05/24 09:06:44;;;;;;;6.15;2.10;;;12.30;88.00;;;;;;5073856;28;20044;-57
2021/05/24 09:09:16;;;;;;;3.13;1.88;;;12.20;88.10;;;;;;5074455;28;20090;-57
2021/05/24 09:11:43;;;;;;;3.53;1.75;;;12.10;88.30;;;;;;5070163;28;20040;-57
2021/05/24 09:14:28;;;;;;;2.95;1.63;;;12.10;88.60;;;;;;5071367;28;20064;-58
2021/05/24 09:17:02;;;;;;;4.85;1.70;;;12.10;88.70;;;;;;5031124;28;20045;-56
2021/05/24 09:19:31;;;;;;;5.80;1.88;;;12.00;89.00;;;;;;5069347;28;20028;-57
2021/05/24 09:21:58;;;;;;;3.83;1.70;;;12.00;88.50;;;;;;5072056;28;20071;-58
2021/05/24 09:24:28;;;;;;;2.28;1.52;;;12.00;88.60;;;;;;5034068;28;20740;-58
2021/05/24 09:26:55;;;;;;;4.63;2.35;;;12.00;88.90;;;;;;5070978;28;20037;-57
2021/05/24 09:29:24;;;;;;;4.13;1.90;;;12.10;89.00;;;;;;5072151;28;20082;-58
2021/05/24 09:32:12;;;;;;;2.63;1.70;;;12.00;89.20;;;;;;5070666;28;20063;-56
2021/05/24 09:34:39;;;;;;;4.30;1.70;;;12.10;89.70;;;;;;5070824;28;20181;-57
2021/05/24 09:37:25;;;;;;;3.85;1.90;;;12.10;89.10;;;;;;5051116;28;20413;-55
2021/05/24 09:39:52;;;;;;;5.07;1.90;;;12.10;89.20;;;;;;5054082;28;20063;-55
2021/05/24 09:42:19;;;;;;;3.88;1.63;;;12.20;89.40;;;;;;5054172;28;20119;-58
2021/05/24 09:44:51;;;;;;;3.00;1.67;;;12.10;89.50;;;;;;5046825;28;20045;-57
2021/05/24 09:47:35;;;;;;;3.60;1.85;;;12.20;90.00;;;;;;5059631;28;20045;-58
2021/05/24 09:50:16;;;;;;;5.70;1.95;;;12.20;89.70;;;;;;5047930;28;20040;-56
2021/05/24 09:52:43;;;;;;;3.00;1.63;;;12.30;89.70;;;;;;5083134;28;20043;-56
2021/05/24 09:55:21;;;;;;;3.33;1.80;;;12.30;89.60;;;;;;5043365;28;20087;-54
2021/05/24 09:57:54;;;;;;;2.65;1.70;;;12.30;89.70;;;;;;5084581;28;20164;-57
2021/05/24 10:00:23;;;;;;;5.93;2.17;;;12.30;89.40;;;;;;5072656;28;20123;-55
2021/05/24 10:02:51;;;;;;;5.10;2.10;;;12.40;89.50;;;;;;5082402;28;20115;-56
2021/05/24 10:05:17;;;;;;;4.75;2.10;;;12.40;89.90;;;;;;5057225;28;20179;-57
2021/05/24 10:07:43;;;;;;;2.22;1.73;;;12.40;90.00;;;;;;5075708;28;20064;-53
2021/05/24 10:10:12;;;;;;;5.97;2.00;;;12.50;90.00;;;;;;5058404;28;20045;-49
2021/05/24 10:12:38;;;;;;;3.08;1.90;;;12.50;90.00;;;;;;5075044;28;20072;-52
2021/05/24 10:15:06;;;;;;;6.05;2.30;;;12.60;90.00;;;;;;5057996;28;20040;-54
2021/05/24 10:17:33;;;;;;;5.78;2.30;;;12.70;90.20;;;;;;5075942;28;20040;-57
2021/05/24 10:19:59;;;;;;;3.95;2.38;;;12.70;90.00;;;;;;5062256;28;20458;-55
2021/05/24 10:22:26;;;;;;;4.88;2.38;;;12.80;90.10;;;;;;5075544;28;20076;-53
2021/05/24 10:24:53;;;;;;;3.72;2.10;;;12.80;89.80;;;;;;5068224;28;20045;-55
2021/05/24 10:27:20;;;;;;;8.00;2.13;;;12.90;89.90;;;;;;5033900;28;20068;-58
2021/05/24 10:29:48;;;;;;;4.32;2.45;;;13.00;90.10;;;;;;5055961;28;20374;-54
2021/05/24 10:32:21;;;;;;;3.53;2.40;;;13.10;89.70;;;;;;5049093;28;20047;-56
2021/05/24 10:34:48;;;;;;;8.25;2.60;;;13.20;89.50;;;;;;5072170;28;20135;-52
2021/05/24 10:37:19;;;;;;;5.43;2.50;;;13.20;89.10;;;;;;5041607;28;20505;-54
2021/05/24 10:39:50;;;;;;;6.10;3.25;;;13.30;89.30;;;;;;5071203;28;20126;-53
2021/05/24 10:42:16;;;;;;;12.15;9.57;;;13.30;89.00;;;;;;5072788;28;20052;-54
2021/05/24 10:44:48;;;;;;;6.57;3.92;;;13.40;89.40;;;;;;5072006;28;20088;-54
2021/05/24 10:47:21;;;;;;;4.53;2.67;;;13.50;88.60;;;;;;5053678;28;20052;-55
2021/05/24 10:50:00;;;;;;;5.55;3.33;;;13.50;88.10;;;;;;5072829;28;20151;-56
2021/05/24 10:52:28;;;;;;;5.78;2.95;;;13.60;88.00;;;;;;5074478;28;20085;-57
2021/05/24 10:54:54;;;;;;;5.47;2.42;;;13.70;86.80;;;;;;5072713;28;20484;-55
2021/05/24 10:57:22;;;;;;;4.05;2.50;;;13.70;86.70;;;;;;5072053;28;20132;-56
2021/05/24 10:59:53;;;;;;;4.97;2.47;;;13.70;86.50;;;;;;5032671;28;20445;-58
2021/05/24 11:02:33;;;;;;;4.07;2.58;;;13.80;85.90;;;;;;5049484;28;20068;-56
2021/05/24 11:05:20;;;;;;;7.22;2.80;;;13.80;86.00;;;;;;5066270;28;20094;-55
2021/05/24 11:07:48;;;;;;;3.67;2.20;;;13.80;85.40;;;;;;5068126;28;20033;-59
2021/05/24 11:10:18;;;;;;;4.90;2.65;;;13.80;84.70;;;;;;5067963;28;20098;-58
2021/05/24 11:12:45;;;;;;;5.22;2.67;;;13.70;85.50;;;;;;5065463;28;20052;-57
2021/05/24 11:15:13;;;;;;;4.78;2.20;;;13.90;85.60;;;;;;5067017;28;20514;-58
2021/05/24 11:18:02;;;;;;;4.57;2.42;;;13.70;84.00;;;;;;5053305;28;20081;-58
2021/05/24 11:20:45;;;;;;;4.63;2.90;;;13.70;83.60;;;;;;5072184;28;20055;-56
2021/05/24 11:23:32;;;;;;;5.70;2.22;;;13.60;84.70;;;;;;5067460;28;20053;-59
2021/05/24 11:26:18;;;;;;;6.38;2.65;;;13.50;85.00;;;;;;5060688;28;20044;-59
2021/05/24 11:29:01;;;;;;;4.15;2.20;;;13.50;85.30;;;;;;5063651;28;20056;-58
2021/05/24 11:31:36;;;;;;;4.30;2.03;;;13.60;84.70;;;;;;5063410;28;20598;-59
2021/05/24 11:34:10;;;;;;;5.07;2.10;;;13.70;83.90;;;;;;5060579;28;20473;-58
2021/05/24 11:36:37;;;;;;;4.03;1.73;;;13.70;84.40;;;;;;5067858;28;20514;-55
2021/05/24 11:39:16;;;;;;;3.45;1.60;;;13.70;84.20;;;;;;5069007;28;20044;-56
2021/05/24 11:41:46;;;;;;;3.25;2.20;;;13.70;84.30;;;;;;5065352;28;20044;-56
2021/05/24 11:44:12;;;;;;;4.35;1.98;;;13.70;84.00;;;;;;5065025;28;20489;-55
2021/05/24 11:46:42;;;;;;;6.13;2.47;;;13.80;83.80;;;;;;5064203;28;20831;-58
2021/05/24 11:49:08;;;;;;;10.57;4.35;;;13.70;82.10;;;;;;5061807;28;20124;-54
2021/05/24 11:51:35;;;;;;;3.97;1.80;;;13.60;82.90;;;;;;5062155;28;20147;-56
2021/05/24 11:54:06;;;;;;;3.92;2.35;;;13.60;83.30;;;;;;5062749;28;20064;-58
2021/05/24 11:56:38;;;;;;;3.80;1.90;;;13.60;83.70;;;;;;5065753;28;20055;-58
2021/05/24 11:59:07;;;;;;;4.75;2.25;;;13.50;84.00;;;;;;5049089;28;20500;-56
2021/05/24 12:01:34;;;;;;;3.50;2.10;;;13.50;84.90;;;;;;5029180;28;20044;-54
2021/05/24 12:04:07;;;;;;;6.40;2.28;;;13.50;84.90;;;;;;5055443;28;20045;-57
2021/05/24 12:06:41;;;;;;;5.63;2.30;;;13.60;85.10;;;;;;5037966;28;20041;-53
2021/05/24 12:09:09;;;;;;;4.88;2.53;;;13.50;85.70;;;;;;5064343;28;20481;-56
2021/05/24 12:11:54;;;;;;;4.93;2.65;;;13.60;85.40;;;;;;5046683;28;20056;-54
2021/05/24 12:14:20;;;;;;;5.43;2.42;;;13.60;84.20;;;;;;5063524;28;20052;-55
2021/05/24 12:16:48;;;;;;;5.22;2.42;;;13.50;84.90;;;;;;5063571;28;20551;-55
2021/05/24 12:19:20;;;;;;;4.32;2.35;;;13.50;85.60;;;;;;5042125;28;20097;-55
2021/05/24 12:21:47;;;;;;;6.68;3.10;;;13.40;85.80;;;;;;5065477;28;20140;-58
2021/05/24 12:24:14;;;;;;;10.98;2.70;;;13.40;86.50;;;;;;5064951;28;20044;-55
2021/05/24 12:26:55;;;;;;;6.45;2.45;;;13.40;86.60;;;;;;5016125;28;20131;-57
2021/05/24 12:29:29;;;;;;;3.78;2.45;;;13.40;87.60;;;;;;5065828;28;20460;-55
2021/05/24 12:32:02;;;;;;;4.78;2.30;;;13.30;87.90;;;;;;5050951;28;20040;-55
2021/05/24 12:34:36;;;;;;;60.90;39.75;;;13.40;88.20;;;;;;5066624;28;20044;-55
2021/05/24 12:37:05;;;;;;;7.65;6.75;;;13.40;88.80;;;;;;5063521;28;20055;-57
2021/05/24 12:39:34;;;;;;;4.10;2.50;;;13.50;87.60;;;;;;5067386;28;20032;-57
2021/05/24 12:42:02;;;;;;;5.03;2.30;;;13.50;87.40;;;;;;5059724;28;20742;-55
2021/05/24 12:44:37;;;;;;;2.40;1.45;;;13.50;87.20;;;;;;5067173;28;20378;-54
2021/05/24 12:47:18;;;;;;;2.35;1.42;;;13.40;87.00;;;;;;5059096;28;20228;-57
2021/05/24 12:49:46;;;;;;;7.50;1.80;;;13.40;87.10;;;;;;5063134;28;20082;-57